createdAt,value
2019-05-20T00:01:29.616Z,99859.38
2019-05-20T00:04:18.558Z,99867.16
2019-05-20T00:07:07.443Z,99862.42
2019-05-20T00:09:56.402Z,99862.84
2019-05-20T00:12:45.205Z,99867.20
2019-05-20T00:15:34.076Z,99870.68
2019-05-20T00:18:22.937Z,99871.55
2019-05-20T00:21:11.791Z,99867.23
2019-05-20T00:24:00.653Z,99868.95
2019-05-20T00:26:49.517Z,99871.13
2019-05-20T00:29:38.340Z,99861.59
2019-05-20T00:32:40.182Z,99865.51
2019-05-20T00:35:17.815Z,99862.03
2019-05-20T00:38:06.642Z,99859.44
2019-05-20T00:40:48.033Z,99856.86
2019-05-20T00:43:36.879Z,99853.40
2019-05-20T00:46:25.716Z,99849.91
2019-05-20T00:49:14.612Z,99855.11
2019-05-20T00:52:03.609Z,99862.03
2019-05-20T00:54:33.218Z,99866.81
2019-05-20T00:57:22.124Z,99867.23
2019-05-20T01:00:11.297Z,99868.11
2019-05-20T01:03:01.720Z,99869.41
2019-05-20T01:05:50.601Z,99868.98
2019-05-20T01:08:39.429Z,99868.09
2019-05-20T01:11:28.272Z,99872.44
2019-05-20T01:14:17.135Z,99872.89
2019-05-20T01:17:05.992Z,99876.77
2019-05-20T01:19:54.846Z,99882.85
2019-05-20T01:22:43.687Z,99888.91
2019-05-20T01:25:32.530Z,99889.75
2019-05-20T01:28:21.383Z,99890.21
2019-05-20T01:31:10.270Z,99887.59
2019-05-20T01:33:59.183Z,99891.47
2019-05-20T01:36:48.030Z,99890.98
2019-05-20T01:39:29.556Z,99891.38
2019-05-20T01:42:18.414Z,99889.94
2019-05-20T01:45:07.562Z,99887.64
2019-05-20T01:47:56.412Z,99890.60
2019-05-20T01:50:45.327Z,99883.53
2019-05-20T01:53:34.220Z,99887.35
2019-05-20T01:56:23.084Z,99879.87
2019-05-20T01:59:11.913Z,99879.80
2019-05-20T02:02:00.786Z,99878.91
2019-05-20T02:04:49.681Z,99882.34
2019-05-20T02:07:38.684Z,99882.73
2019-05-20T02:10:27.572Z,99882.62
2019-05-20T02:13:16.430Z,99880.95
2019-05-20T02:19:14.683Z,99881.84
2019-05-20T02:22:03.510Z,99882.98
2019-05-20T02:24:52.387Z,99880.88
2019-05-20T02:27:41.255Z,99877.36
2019-05-20T02:30:30.118Z,99870.67
2019-05-20T02:33:18.962Z,99870.23
2019-05-20T02:36:07.957Z,99876.25
2019-05-20T02:38:56.817Z,99872.06
2019-05-20T02:41:45.658Z,99879.55
2019-05-20T02:44:34.503Z,99886.69
2019-05-20T02:47:23.325Z,99882.44
2019-05-20T02:50:12.387Z,99883.16
2019-05-20T02:53:01.256Z,99883.22
2019-05-20T02:55:50.097Z,99878.05
2019-05-20T02:58:38.922Z,99883.42
2019-05-20T03:01:27.764Z,99890.06
2019-05-20T03:04:16.600Z,99897.03
2019-05-20T03:07:05.459Z,99896.47
2019-05-20T03:09:54.304Z,99902.23
2019-05-20T03:12:43.194Z,99902.52
2019-05-20T03:15:32.015Z,99898.05
2019-05-20T03:18:20.938Z,99897.62
2019-05-20T03:21:09.770Z,99901.70
2019-05-20T03:23:58.620Z,99907.27
2019-05-20T03:26:47.451Z,99908.19
2019-05-20T03:29:36.319Z,99904.19
2019-05-20T03:32:25.198Z,99906.32
2019-05-20T03:38:28.619Z,99911.63
2019-05-20T03:41:17.509Z,99910.23
2019-05-20T03:44:06.325Z,99908.16
2019-05-20T03:46:55.185Z,99905.48
2019-05-20T03:49:44.090Z,99901.92
2019-05-20T03:52:33.005Z,99904.53
2019-05-20T03:55:21.856Z,99908.00
2019-05-20T03:58:13.220Z,99913.64
2019-05-20T04:01:01.350Z,99921.59
2019-05-20T04:03:50.185Z,99926.16
2019-05-20T04:06:39.010Z,99923.64
2019-05-20T04:09:27.932Z,99920.64
2019-05-20T04:12:16.767Z,99922.36
2019-05-20T04:15:06.275Z,99922.88
2019-05-20T04:17:55.101Z,99917.49
2019-05-20T04:20:43.964Z,99917.43
2019-05-20T04:23:32.790Z,99927.37
2019-05-20T04:26:21.639Z,99932.14
2019-05-20T04:29:10.557Z,99938.22
2019-05-20T04:31:59.473Z,99945.58
2019-05-20T04:34:48.302Z,99941.50
2019-05-20T04:37:37.245Z,99937.65
2019-05-20T04:40:19.250Z,99934.63
2019-05-20T04:43:08.122Z,99932.70
2019-05-20T04:45:57.125Z,99941.91
2019-05-20T04:48:45.972Z,99941.66
2019-05-20T04:51:53.822Z,99938.16
2019-05-20T04:54:42.668Z,99939.33
2019-05-20T04:57:31.512Z,99953.32
2019-05-20T05:00:59.082Z,99959.12
2019-05-20T05:03:47.916Z,99956.24
2019-05-20T05:06:36.824Z,99955.90
2019-05-20T05:09:25.760Z,99957.62
2019-05-20T05:12:14.602Z,99956.69
2019-05-20T05:18:31.831Z,99942.66
2019-05-20T05:21:20.755Z,99939.98
2019-05-20T05:24:09.612Z,99945.41
2019-05-20T05:26:58.530Z,99949.13
2019-05-20T05:29:47.392Z,99949.57
2019-05-20T05:32:55.318Z,99949.16
2019-05-20T05:35:52.833Z,99954.45
2019-05-20T05:38:34.800Z,99961.84
2019-05-20T05:41:16.631Z,99968.86
2019-05-20T05:44:05.541Z,99967.11
2019-05-20T05:46:54.407Z,99972.16
2019-05-20T05:49:43.272Z,99967.42
2019-05-20T05:52:32.103Z,99965.11
2019-05-20T05:55:20.955Z,99966.76
2019-05-20T05:58:09.791Z,99970.30
2019-05-20T06:00:58.643Z,99968.36
2019-05-20T06:03:47.491Z,99967.99
2019-05-20T06:06:36.319Z,99977.47
2019-05-20T06:09:25.162Z,99976.80
2019-05-20T06:12:14.016Z,99983.30
2019-05-20T06:15:02.933Z,99986.02
2019-05-20T06:17:51.803Z,99990.77
2019-05-20T06:20:40.710Z,99990.66
2019-05-20T06:23:29.570Z,99993.13
2019-05-20T06:26:18.439Z,100006.20
2019-05-20T06:29:07.283Z,100007.39
2019-05-20T06:31:56.208Z,100005.71
2019-05-20T06:34:45.069Z,100006.53
2019-05-20T06:37:52.947Z,100019.30
2019-05-20T06:40:35.190Z,100018.70
2019-05-20T06:43:24.059Z,100013.41
2019-05-20T06:46:12.883Z,100013.85
2019-05-20T06:49:01.801Z,100016.43
2019-05-20T06:51:50.712Z,100012.84
2019-05-20T06:54:39.606Z,100019.71
2019-05-20T06:57:28.458Z,100034.42
2019-05-20T07:00:38.195Z,100032.88
2019-05-20T07:03:27.016Z,100038.43
2019-05-20T07:06:15.942Z,100041.13
2019-05-20T07:09:25.676Z,100047.10
2019-05-20T07:12:14.577Z,100042.43
2019-05-20T07:18:17.897Z,100041.38
2019-05-20T07:21:06.723Z,100042.31
2019-05-20T07:23:55.662Z,100047.51
2019-05-20T07:26:44.567Z,100042.92
2019-05-20T07:29:33.433Z,100047.51
2019-05-20T07:32:22.278Z,100047.80
2019-05-20T07:38:26.693Z,100053.08
2019-05-20T07:41:08.481Z,100050.37
2019-05-20T07:43:57.338Z,100051.24
2019-05-20T07:46:46.262Z,100051.93
2019-05-20T07:49:35.163Z,100042.98
2019-05-20T07:56:31.050Z,100045.44
2019-05-20T08:02:48.274Z,100050.95
2019-05-20T08:05:37.153Z,100056.14
2019-05-20T08:08:26.085Z,100065.66
2019-05-20T08:11:15.054Z,100067.06
2019-05-20T08:14:04.056Z,100065.26
2019-05-20T08:16:52.980Z,100067.01
2019-05-20T08:19:41.844Z,100065.04
2019-05-20T08:22:30.687Z,100065.58
2019-05-20T08:25:19.719Z,100065.22
2019-05-20T08:28:08.661Z,100072.78
2019-05-20T08:30:57.670Z,100071.15
2019-05-20T08:33:46.728Z,100071.75
2019-05-20T08:36:54.815Z,100076.31
2019-05-20T08:39:43.742Z,100073.97
2019-05-20T08:42:25.190Z,100083.98
2019-05-20T08:45:14.157Z,100088.13
2019-05-20T08:48:03.074Z,100091.50
2019-05-20T08:50:51.996Z,100080.73
2019-05-20T08:53:40.845Z,100083.80
2019-05-20T08:56:29.734Z,100083.38
2019-05-20T08:59:18.549Z,100090.27
2019-05-20T09:02:07.566Z,100098.22
2019-05-20T09:04:56.420Z,100098.55
2019-05-20T09:08:01.091Z,100103.75
2019-05-20T09:10:39.305Z,100101.36
2019-05-20T09:13:26.921Z,100106.19
2019-05-20T09:16:15.896Z,100099.75
2019-05-20T09:19:04.840Z,100095.59
2019-05-20T09:21:53.654Z,100092.73
2019-05-20T09:24:42.718Z,100099.69
2019-05-20T09:27:33.087Z,100098.23
2019-05-20T09:30:22.126Z,100090.64
2019-05-20T09:36:40.870Z,100093.75
2019-05-20T09:39:29.784Z,100108.87
2019-05-20T09:42:11.666Z,100106.93
2019-05-20T09:45:03.085Z,100106.98
2019-05-20T09:47:51.045Z,100110.60
2019-05-20T09:54:08.331Z,100109.56
2019-05-20T09:56:57.163Z,100101.43
2019-05-20T09:59:46.039Z,100115.70
2019-05-20T10:02:38.235Z,100120.31
2019-05-20T10:05:25.508Z,100114.94
2019-05-20T10:08:14.418Z,100115.56
2019-05-20T10:11:03.278Z,100114.38
2019-05-20T10:13:52.103Z,100114.33
2019-05-20T10:16:40.965Z,100118.42
2019-05-20T10:19:29.793Z,100122.84
2019-05-20T10:22:18.656Z,100125.98
2019-05-20T10:25:28.373Z,100135.39
2019-05-20T10:28:17.264Z,100124.06
2019-05-20T10:31:06.114Z,100131.75
2019-05-20T10:33:54.998Z,100130.34
2019-05-20T10:36:43.849Z,100135.23
2019-05-20T10:39:32.671Z,100131.06
2019-05-20T10:42:14.401Z,100127.55
2019-05-20T10:45:03.605Z,100125.91
2019-05-20T10:47:54.060Z,100137.01
2019-05-20T10:50:42.887Z,100132.23
2019-05-20T10:53:31.714Z,100131.83
2019-05-20T10:56:20.587Z,100134.19
2019-05-20T10:59:11.889Z,100130.21
2019-05-20T11:02:00.061Z,100135.04
2019-05-20T11:04:48.912Z,100139.47
2019-05-20T11:07:37.768Z,100144.16
2019-05-20T11:10:26.603Z,100148.03
2019-05-20T11:13:15.460Z,100152.87
2019-05-20T11:16:04.433Z,100155.81
2019-05-20T11:18:53.360Z,100161.14
2019-05-20T11:21:42.185Z,100160.16
2019-05-20T11:24:31.039Z,100160.92
2019-05-20T11:27:19.950Z,100159.88
2019-05-20T11:33:23.441Z,100168.83
2019-05-20T11:36:12.366Z,100171.03
2019-05-20T11:39:01.210Z,100164.66
2019-05-20T11:41:54.462Z,100170.09
2019-05-20T11:44:33.976Z,100172.44
2019-05-20T11:47:22.820Z,100167.59
2019-05-20T11:53:40.049Z,100170.37
2019-05-20T11:56:28.872Z,100175.02
2019-05-20T11:59:17.740Z,100171.73
2019-05-20T12:02:06.632Z,100182.02
2019-05-20T12:04:55.585Z,100176.72
2019-05-20T12:07:44.407Z,100174.09
2019-05-20T12:10:33.343Z,100176.87
2019-05-20T12:13:22.193Z,100179.54
2019-05-20T12:16:11.117Z,100170.31
2019-05-20T12:18:59.984Z,100180.66
2019-05-20T12:21:48.834Z,100177.28
2019-05-20T12:24:37.675Z,100185.45
2019-05-20T12:27:26.539Z,100182.02
2019-05-20T12:30:15.628Z,100177.84
2019-05-20T12:33:18.064Z,100179.16
2019-05-20T12:35:55.104Z,100174.01
2019-05-20T12:38:43.952Z,100180.97
2019-05-20T12:41:32.943Z,100175.62
2019-05-20T12:44:14.825Z,100178.38
2019-05-20T12:47:03.705Z,100171.98
2019-05-20T12:49:52.559Z,100174.00
2019-05-20T12:52:41.491Z,100175.46
2019-05-20T12:55:30.388Z,100178.68
2019-05-20T12:58:19.262Z,100169.55
2019-05-20T13:01:08.122Z,100176.92
2019-05-20T13:03:56.962Z,100176.13
2019-05-20T13:06:45.844Z,100167.63
2019-05-20T13:09:34.684Z,100176.09
2019-05-20T13:12:23.559Z,100178.37
2019-05-20T13:15:12.525Z,100172.92
2019-05-20T13:18:01.474Z,100168.28
2019-05-20T13:20:50.285Z,100167.84
2019-05-20T13:23:39.143Z,100170.16
2019-05-20T13:26:27.978Z,100168.23
2019-05-20T13:29:16.907Z,100171.48
2019-05-20T13:32:05.756Z,100175.30
2019-05-20T13:34:54.629Z,100170.34
2019-05-20T13:37:43.550Z,100170.16
2019-05-20T13:40:46.011Z,100163.09
2019-05-20T13:43:15.620Z,100171.82
2019-05-20T13:46:04.455Z,100168.61
2019-05-20T13:48:53.315Z,100171.27
2019-05-20T13:51:42.137Z,100166.67
2019-05-20T13:54:31.099Z,100160.88
2019-05-20T13:57:19.923Z,100163.13
2019-05-20T14:03:23.469Z,100164.16
2019-05-20T14:06:12.312Z,100167.75
2019-05-20T14:09:01.189Z,100168.95
2019-05-20T14:11:50.104Z,100170.42
2019-05-20T14:14:38.949Z,100163.00
2019-05-20T14:17:27.828Z,100165.98
2019-05-20T14:20:16.838Z,100164.09
2019-05-20T14:23:05.734Z,100160.78
2019-05-20T14:25:54.660Z,100158.96
2019-05-20T14:28:43.608Z,100159.16
2019-05-20T14:31:32.535Z,100162.55
2019-05-20T14:34:21.372Z,100165.52
2019-05-20T14:37:10.444Z,100162.70
2019-05-20T14:39:59.308Z,100163.25
2019-05-20T14:42:48.150Z,100165.08
2019-05-20T14:45:29.710Z,100167.66
2019-05-20T14:48:18.691Z,100164.66
2019-05-20T14:51:07.649Z,100167.30
2019-05-20T14:53:56.486Z,100160.39
2019-05-20T14:56:45.353Z,100165.53
2019-05-20T14:59:34.196Z,100173.02
2019-05-20T15:02:23.063Z,100172.79
2019-05-20T15:05:12.167Z,100163.61
2019-05-20T15:08:01.181Z,100166.45
2019-05-20T15:10:50.057Z,100163.77
2019-05-20T15:13:38.928Z,100162.50
2019-05-20T15:16:27.836Z,100163.45
2019-05-20T15:19:16.725Z,100161.38
2019-05-20T15:22:06.215Z,100161.63
2019-05-20T15:24:55.194Z,100161.19
2019-05-20T15:27:44.240Z,100176.98
2019-05-20T15:30:33.149Z,100167.39
2019-05-20T15:33:21.989Z,100165.56
2019-05-20T15:36:10.912Z,100168.24
2019-05-20T15:38:59.744Z,100165.87
2019-05-20T15:41:48.658Z,100170.02
2019-05-20T15:44:30.663Z,100166.78
2019-05-20T15:47:19.556Z,100173.33
2019-05-20T15:56:37.490Z,100162.73
2019-05-20T15:59:07.003Z,100166.67
2019-05-20T16:01:56.054Z,100161.66
2019-05-20T16:04:44.933Z,100158.70
2019-05-20T16:07:33.861Z,100163.80
2019-05-20T16:10:22.796Z,100160.13
2019-05-20T16:13:11.717Z,100158.14
2019-05-20T16:16:00.625Z,100158.08
2019-05-20T16:18:49.478Z,100165.39
2019-05-20T16:21:38.360Z,100166.00
2019-05-20T16:24:27.210Z,100164.83
2019-05-20T16:26:56.767Z,100165.59
2019-05-20T16:30:00.631Z,100169.30
2019-05-20T16:32:36.238Z,100167.75
2019-05-20T16:35:25.102Z,100168.75
2019-05-20T16:38:13.978Z,100163.45
2019-05-20T16:41:02.828Z,100167.55
2019-05-20T16:43:51.718Z,100174.32
2019-05-20T16:46:33.263Z,100171.39
2019-05-20T16:49:22.115Z,100168.16
2019-05-20T16:52:11.005Z,100176.02
2019-05-20T16:54:59.935Z,100170.88
2019-05-20T16:57:48.846Z,100175.78
2019-05-20T17:00:37.924Z,100170.17
2019-05-20T17:03:26.783Z,100164.17
2019-05-20T17:06:15.709Z,100165.16
2019-05-20T17:12:19.348Z,100160.23
2019-05-20T17:18:36.559Z,100160.28
2019-05-20T17:21:25.418Z,100173.25
2019-05-20T17:24:14.346Z,100169.31
2019-05-20T17:27:03.181Z,100174.16
2019-05-20T17:29:52.075Z,100179.72
2019-05-20T17:32:40.910Z,100179.35
2019-05-20T17:35:29.758Z,100181.56
2019-05-20T17:38:18.590Z,100175.56
2019-05-20T17:41:07.598Z,100172.13
2019-05-20T17:43:56.434Z,100174.66
2019-05-20T17:46:37.953Z,100178.41
2019-05-20T17:49:26.880Z,100184.78
2019-05-20T17:52:15.787Z,100185.55
2019-05-20T17:55:25.877Z,100180.52
2019-05-20T17:58:14.732Z,100181.21
2019-05-20T18:01:14.907Z,100182.66
2019-05-20T18:03:54.252Z,100189.16
2019-05-20T18:06:43.220Z,100197.59
2019-05-20T18:12:41.576Z,100205.05
2019-05-20T18:15:30.464Z,100219.00
2019-05-20T18:18:19.322Z,100218.10
2019-05-20T18:21:08.197Z,100225.14
2019-05-20T18:23:57.097Z,100225.67
2019-05-20T18:26:46.058Z,100221.86
2019-05-20T18:29:35.001Z,100230.20
2019-05-20T18:32:23.859Z,100224.89
2019-05-20T18:35:12.906Z,100233.86
2019-05-20T18:38:01.950Z,100231.89
2019-05-20T18:40:50.794Z,100228.89
2019-05-20T18:43:39.673Z,100228.90
2019-05-20T18:46:21.406Z,100232.67
2019-05-20T18:49:10.317Z,100229.83
2019-05-20T18:51:59.214Z,100232.41
2019-05-20T18:54:48.122Z,100230.31
2019-05-20T18:57:37.047Z,100227.33
2019-05-20T19:03:38.841Z,100224.41
2019-05-20T19:06:29.129Z,100229.91
2019-05-20T19:09:18.148Z,100225.57
2019-05-20T19:12:07.096Z,100225.23
2019-05-20T19:14:56.097Z,100221.79
2019-05-20T19:17:45.044Z,100220.33
2019-05-20T19:20:33.970Z,100222.54
2019-05-20T19:23:22.866Z,100226.58
2019-05-20T19:26:23.896Z,100226.69
2019-05-20T19:29:02.690Z,100234.95
2019-05-20T19:32:01.374Z,100225.27
2019-05-20T19:37:39.934Z,100221.08
2019-05-20T19:40:28.837Z,100225.38
2019-05-20T19:43:17.678Z,100234.09
2019-05-20T19:45:59.320Z,100235.40
2019-05-20T19:48:48.227Z,100235.47
2019-05-20T19:51:37.397Z,100241.63
2019-05-20T19:54:26.615Z,100240.16
2019-05-20T19:57:15.531Z,100237.73
2019-05-20T20:00:25.241Z,100236.78
2019-05-20T20:03:14.132Z,100235.88
2019-05-20T20:06:03.083Z,100233.64
2019-05-20T20:08:51.984Z,100234.98
2019-05-20T20:11:40.890Z,100247.77
2019-05-20T20:14:29.777Z,100244.56
2019-05-20T20:17:18.632Z,100249.90
2019-05-20T20:20:07.579Z,100245.97
2019-05-20T20:22:56.420Z,100244.11
2019-05-20T20:25:45.291Z,100245.52
2019-05-20T20:28:34.202Z,100255.95
2019-05-20T20:31:23.069Z,100253.47
2019-05-20T20:34:11.957Z,100257.69
2019-05-20T20:37:00.832Z,100254.66
2019-05-20T20:39:49.685Z,100259.92
2019-05-20T20:42:38.541Z,100257.44
2019-05-20T20:45:27.409Z,100263.78
2019-05-20T20:48:08.948Z,100255.89
2019-05-20T20:50:57.891Z,100253.95
2019-05-20T20:53:46.725Z,100253.38
2019-05-20T20:56:35.734Z,100252.06
2019-05-20T20:59:24.583Z,100254.37
2019-05-20T21:02:13.449Z,100262.52
2019-05-20T21:05:02.349Z,100262.67
2019-05-20T21:07:51.850Z,100250.89
2019-05-20T21:10:41.989Z,100256.95
2019-05-20T21:13:30.875Z,100265.83
2019-05-20T21:16:19.786Z,100265.88
2019-05-20T21:19:08.619Z,100265.44
2019-05-20T21:21:57.459Z,100260.73
2019-05-20T21:24:54.012Z,100262.17
2019-05-20T21:27:42.892Z,100264.02
2019-05-20T21:30:31.731Z,100259.81
2019-05-20T21:33:20.653Z,100266.77
2019-05-20T21:36:09.532Z,100265.47
2019-05-20T21:38:58.346Z,100266.03
2019-05-20T21:41:47.195Z,100261.72
2019-05-20T21:44:36.078Z,100252.98
2019-05-20T21:47:17.897Z,100249.52
2019-05-20T21:53:22.327Z,100245.31
2019-05-20T21:56:11.169Z,100238.42
2019-05-20T21:59:00.017Z,100237.11
2019-05-20T22:01:48.923Z,100242.48
2019-05-20T22:04:37.812Z,100245.81
2019-05-20T22:07:26.689Z,100236.27
2019-05-20T22:10:15.599Z,100238.44
2019-05-20T22:13:04.440Z,100238.90
2019-05-20T22:15:53.381Z,100231.61
2019-05-20T22:18:42.285Z,100228.20
2019-05-20T22:21:50.179Z,100228.11
2019-05-20T22:24:39.006Z,100222.46
2019-05-20T22:27:27.920Z,100219.94
2019-05-20T22:30:16.759Z,100219.94
2019-05-20T22:33:05.688Z,100224.30
2019-05-20T22:35:54.574Z,100217.33
2019-05-20T22:38:43.446Z,100216.44
2019-05-20T22:41:32.273Z,100213.04
2019-05-20T22:44:21.150Z,100211.72
2019-05-20T22:47:09.986Z,100209.11
2019-05-20T22:49:58.857Z,100207.84
2019-05-20T22:52:47.685Z,100203.90
2019-05-20T22:55:36.556Z,100211.31
2019-05-20T22:58:25.425Z,100210.42
2019-05-20T23:01:14.287Z,100209.13
2019-05-20T23:04:03.103Z,100215.66
2019-05-20T23:06:52.056Z,100217.42
2019-05-20T23:09:40.887Z,100217.44
2019-05-20T23:12:29.888Z,100223.98
2019-05-20T23:15:18.758Z,100219.59
2019-05-20T23:18:07.590Z,100220.94
2019-05-20T23:20:56.456Z,100225.71
2019-05-20T23:23:45.299Z,100231.81
2019-05-20T23:26:34.232Z,100235.30
2019-05-20T23:29:23.081Z,100237.06
2019-05-20T23:32:11.999Z,100231.44
2019-05-20T23:35:00.854Z,100234.48
2019-05-20T23:37:49.698Z,100242.27
2019-05-20T23:40:38.558Z,100238.80
2019-05-20T23:43:27.423Z,100234.95
2019-05-20T23:46:16.254Z,100236.23
2019-05-20T23:48:58.493Z,100239.27
2019-05-20T23:51:47.336Z,100240.59
2019-05-20T23:54:36.275Z,100242.29
2019-05-20T23:57:25.141Z,100239.75
